Diosdado Macapagal International Airport
RPLC : now visible

Airfield :











YOU CAN JOIN US ON...

 
LOGIN :

Register | Disclaimer

   EN    FR    IT 

 









Legend :    VFR   Marginal VFR   IFR   Intensive IFR   Very Intensive IFR
Visi :
Ceiling :
>= 8 km
>= 3000ft
5 to 8 km
1000 to 3000 ft
1500m to 5 km
500 to 1000 ft
800 to 1500m
200 to 500 ft
< 800m
< 200 ft
Symbols :   Thunderstorms  Fog  Heavy snow  Heavy precipitations  Wind > 20 kt







- Airport Elevation : 484 ft
- IATA code : CRK


RPLC - Diosdado Macapagal International

CURRENT METAR :
  • 261100Z 03002KT 8000 -SHRA SCT020 OVC100 25/24 Q1011 RMK A2965

EXPIRED METARs :
  • 261000Z 18010G16KT 9999 FEW018CB 30/23 Q1010 NOSIG RMK A2983 CB W
  • 260900Z 34004KT 9000 SCT020 OVC100 26/25 Q1010 RERA RMK A2983

TAF TAF RPLC
Valid from the 26 at 06:00 until the 27 at 12:00 UTC


260500Z 2606/2712 18008KT 9999 SCT020 BKN100 TX34/2606Z TN25/2622Z
TEMPO 2606/2612 25010KT 8000 -TSRA FEW015CB SCT020 OVC100
RPHI FIR / Asia



MET'MAP, your aeronautical weather chart ! - Copyright ORBIFLY December 2007 - Disclaimer

ORBIFLY MET'MAP TEAM :

Programming & Development : Alexandra Zaïnal
Concept & Development : Baudouin d'Aumeries
Co-Development & Prog : Marc-Olivier Méhu
Technical & hardware support : Manuel Goepfert

Contact : metmap@orbifly.com




SOURCES & CREDITS :

   NOAA       Earth
Advisory